Time;durP1;ratioP1;P1;durP2;ratioP2;P2;SDS_P1;SDS_P2;PMS_P1;PMS_P2;Temp;Humidity;BMP_temperature;BMP_pressure;BME280_temperature;BME280_humidity;BME280_pressure;Samples;Min_cycle;Max_cycle;Signal;HPM_P1;HPM_P2
2022/12/19 00:01:31;;;;;;;38.53;23.60;;;;;;;;;;5059053;28;20043;-74
2022/12/19 00:04:00;;;;;;;38.40;24.58;;;;;;;;;;5059500;28;20036;-73
2022/12/19 00:06:28;;;;;;;39.25;23.00;;;;;;;;;;5060378;28;20045;-73
2022/12/19 00:08:54;;;;;;;40.33;24.33;;;;;;;;;;5059097;28;20514;-74
2022/12/19 00:11:21;;;;;;;34.88;21.23;;;;;;;;;;5062290;28;20048;-73
2022/12/19 00:13:47;;;;;;;35.75;23.83;;;;;;;;;;5068671;28;20060;-73
2022/12/19 00:16:15;;;;;;;39.65;25.55;;;;;;;;;;5066225;28;20051;-74
2022/12/19 00:18:42;;;;;;;40.47;24.90;;;;;;;;;;5062468;28;20113;-74
2022/12/19 00:21:09;;;;;;;40.78;24.45;;;;;;;;;;5063938;28;20072;-73
2022/12/19 00:23:38;;;;;;;36.88;24.33;;;;;;;;;;5063939;28;20170;-74
2022/12/19 00:26:21;;;;;;;37.53;25.17;;;;;;;;;;5060078;28;20041;-73
2022/12/19 00:28:52;;;;;;;38.83;24.08;;;;;;;;;;5062903;28;20040;-73
2022/12/19 00:31:18;;;;;;;42.80;25.92;;;;;;;;;;5063031;28;20048;-74
2022/12/19 00:33:45;;;;;;;42.75;25.48;;;;;;;;;;5063066;28;20037;-74
2022/12/19 00:36:12;;;;;;;40.72;26.08;;;;;;;;;;5067585;28;20119;-74
2022/12/19 00:38:42;;;;;;;38.00;25.85;;;;;;;;;;5064113;28;20045;-74
2022/12/19 00:41:08;;;;;;;36.65;21.23;;;;;;;;;;5062736;28;20048;-74
2022/12/19 00:43:34;;;;;;;37.38;22.70;;;;;;;;;;5062200;28;20080;-74
2022/12/19 00:46:07;;;;;;;42.88;25.35;;;;;;;;;;5061510;28;20044;-74
2022/12/19 00:48:33;;;;;;;;;;;;;;;;;;5061859;28;20047;-74
2022/12/19 00:51:04;;;;;;;40.75;23.50;;;;;;;;;;5059236;28;19929;-74
2022/12/19 00:53:30;;;;;;;47.13;26.40;;;;;;;;;;5059560;28;20404;-74
2022/12/19 00:55:56;;;;;;;40.80;25.58;;;;;;;;;;5058802;28;20052;-74
2022/12/19 00:58:22;;;;;;;39.72;25.55;;;;;;;;;;5060861;28;20036;-74
2022/12/19 01:00:49;;;;;;;42.80;25.63;;;;;;;;;;5062491;28;20043;-73
2022/12/19 01:03:15;;;;;;;41.72;26.63;;;;;;;;;;5059971;28;20045;-73
2022/12/19 01:05:41;;;;;;;45.17;27.25;;;;;;;;;;5066905;28;20106;-74
2022/12/19 01:08:07;;;;;;;47.20;27.95;;;;;;;;;;5060378;28;20163;-74
2022/12/19 01:10:33;;;;;;;43.47;26.85;;;;;;;;;;5061082;28;20077;-74
2022/12/19 01:12:59;;;;;;;42.60;27.58;;;;;;;;;;5058472;28;20066;-74
2022/12/19 01:15:25;;;;;;;45.85;29.17;;;;;;;;;;5057706;28;20045;-74
2022/12/19 01:17:51;;;;;;;40.42;27.05;;;;;;;;;;5060099;28;20519;-74
2022/12/19 01:20:18;;;;;;;42.85;26.60;;;;;;;;;;5061484;28;20404;-74
2022/12/19 01:22:44;;;;;;;45.25;27.58;;;;;;;;;;5060271;28;20097;-73
2022/12/19 01:25:11;;;;;;;42.05;26.77;;;;;;;;;;5060108;28;20045;-74
2022/12/19 01:27:37;;;;;;;46.70;27.42;;;;;;;;;;5058644;28;20054;-74
2022/12/19 01:30:04;;;;;;;43.95;26.45;;;;;;;;;;5060721;28;20071;-74
2022/12/19 01:32:35;;;;;;;45.35;27.25;;;;;;;;;;5058944;28;20130;-74
2022/12/19 01:35:01;;;;;;;50.58;28.70;;;;;;;;;;5056837;28;20095;-74
2022/12/19 01:37:27;;;;;;;47.95;27.70;;;;;;;;;;5057781;28;20052;-74
2022/12/19 01:39:53;;;;;;;44.72;28.10;;;;;;;;;;5069692;28;20032;-74
2022/12/19 01:42:20;;;;;;;46.05;27.83;;;;;;;;;;5058309;28;20956;-75
2022/12/19 01:45:05;;;;;;;46.92;27.48;;;;;;;;;;5061063;28;20546;-74
2022/12/19 01:47:32;;;;;;;49.20;28.45;;;;;;;;;;5059929;28;20172;-74
2022/12/19 01:49:58;;;;;;;45.92;27.52;;;;;;;;;;5058631;28;20053;-74
2022/12/19 01:52:24;;;;;;;49.00;30.05;;;;;;;;;;5058203;28;20044;-73
2022/12/19 01:54:50;;;;;;;50.22;27.88;;;;;;;;;;5059268;28;20063;-74
2022/12/19 01:57:18;;;;;;;49.28;29.42;;;;;;;;;;5058996;28;20050;-74
2022/12/19 01:59:53;;;;;;;48.25;28.02;;;;;;;;;;5059488;28;20480;-74
2022/12/19 02:02:25;;;;;;;47.47;27.38;;;;;;;;;;5057744;28;20051;-74
2022/12/19 02:04:51;;;;;;;54.92;30.45;;;;;;;;;;5060659;28;20044;-74
2022/12/19 02:07:23;;;;;;;47.15;29.50;;;;;;;;;;5058627;28;20480;-74
2022/12/19 02:09:54;;;;;;;50.90;29.40;;;;;;;;;;5054286;28;20141;-74
2022/12/19 02:12:21;;;;;;;48.03;29.20;;;;;;;;;;5051445;28;20040;-74
2022/12/19 02:14:47;;;;;;;48.88;27.25;;;;;;;;;;5051123;28;20053;-73
2022/12/19 02:17:22;;;;;;;46.65;27.13;;;;;;;;;;5055569;28;20056;-74
2022/12/19 02:19:48;;;;;;;50.70;28.10;;;;;;;;;;5054659;28;21017;-74
2022/12/19 02:22:55;;;;;;;43.95;27.85;;;;;;;;;;5055422;28;20164;-74
2022/12/19 02:25:48;;;;;;;53.10;29.58;;;;;;;;;;5019487;28;20053;-74
2022/12/19 02:28:21;;;;;;;45.67;26.70;;;;;;;;;;5017864;28;20078;-74
2022/12/19 02:30:59;;;;;;;47.22;28.77;;;;;;;;;;5048280;28;20053;-74
2022/12/19 02:33:43;;;;;;;46.28;28.67;;;;;;;;;;5052562;28;20072;-74
2022/12/19 02:36:12;;;;;;;43.97;28.00;;;;;;;;;;5053710;28;20048;-74
2022/12/19 02:38:59;;;;;;;43.17;26.17;;;;;;;;;;5057359;28;20178;-74
2022/12/19 02:41:42;;;;;;;44.53;24.67;;;;;;;;;;5057453;28;20056;-74
2022/12/19 02:44:19;;;;;;;39.47;22.38;;;;;;;;;;5058230;28;20131;-75
2022/12/19 02:46:46;;;;;;;42.50;25.65;;;;;;;;;;5057358;28;20040;-74
2022/12/19 02:49:13;;;;;;;44.53;26.73;;;;;;;;;;5055270;28;21701;-74
2022/12/19 02:51:39;;;;;;;38.47;24.30;;;;;;;;;;5057880;28;20044;-74
2022/12/19 02:54:05;;;;;;;40.63;25.55;;;;;;;;;;5058655;28;20121;-74
2022/12/19 02:56:31;;;;;;;45.13;27.58;;;;;;;;;;5059135;28;20048;-74
2022/12/19 02:59:16;;;;;;;45.97;26.98;;;;;;;;;;5054322;28;20048;-74
2022/12/19 03:01:48;;;;;;;41.28;25.13;;;;;;;;;;5053597;28;20044;-74
2022/12/19 03:04:21;;;;;;;40.60;24.20;;;;;;;;;;5057273;28;20110;-74
2022/12/19 03:07:02;;;;;;;48.03;27.08;;;;;;;;;;5057443;28;20040;-74
2022/12/19 03:09:31;;;;;;;41.03;25.20;;;;;;;;;;5060804;28;20128;-74
2022/12/19 03:12:01;;;;;;;41.45;26.15;;;;;;;;;;5064264;28;20044;-74
2022/12/19 03:14:28;;;;;;;43.70;26.63;;;;;;;;;;5059972;28;20079;-74
2022/12/19 03:16:54;;;;;;;43.67;25.85;;;;;;;;;;5059782;28;20048;-74
2022/12/19 03:19:20;;;;;;;39.90;25.63;;;;;;;;;;5061580;28;20033;-74
2022/12/19 03:21:47;;;;;;;45.75;25.40;;;;;;;;;;5065625;28;20056;-74
2022/12/19 03:24:14;;;;;;;42.63;25.83;;;;;;;;;;5065754;28;20495;-75
2022/12/19 03:26:43;;;;;;;46.08;27.40;;;;;;;;;;5068312;28;20040;-74
2022/12/19 03:29:19;;;;;;;42.78;26.48;;;;;;;;;;5063373;28;20040;-74
2022/12/19 03:31:46;;;;;;;42.67;25.20;;;;;;;;;;5061118;28;20427;-74
2022/12/19 03:34:17;;;;;;;44.78;27.50;;;;;;;;;;5064220;28;20138;-74
2022/12/19 03:36:45;;;;;;;43.53;27.08;;;;;;;;;;5059224;28;20049;-73
2022/12/19 03:39:12;;;;;;;44.85;27.63;;;;;;;;;;5070086;28;20123;-74
2022/12/19 03:44:25;;;;;;;45.35;29.40;;;;;;;;;;5067312;28;20041;-74
2022/12/19 03:46:57;;;;;;;44.40;26.95;;;;;;;;;;5072013;28;20047;-74
2022/12/19 03:49:23;;;;;;;40.70;26.05;;;;;;;;;;5068876;28;20488;-74
2022/12/19 03:51:52;;;;;;;46.78;27.95;;;;;;;;;;5070973;28;20408;-74
2022/12/19 03:54:23;;;;;;;41.55;25.95;;;;;;;;;;5065697;28;20037;-74
2022/12/19 03:56:58;;;;;;;50.10;29.17;;;;;;;;;;5066323;28;20036;-74
2022/12/19 03:59:30;;;;;;;45.85;29.05;;;;;;;;;;5066502;28;20052;-74
2022/12/19 04:01:59;;;;;;;45.17;27.58;;;;;;;;;;5056367;28;20044;-74
2022/12/19 04:04:26;;;;;;;44.67;27.67;;;;;;;;;;5073759;28;20044;-74
2022/12/19 04:06:53;;;;;;;46.88;27.20;;;;;;;;;;5062008;28;20097;-74
2022/12/19 04:09:20;;;;;;;43.45;26.25;;;;;;;;;;5058043;28;20552;-73
2022/12/19 04:11:49;;;;;;;44.58;28.15;;;;;;;;;;5062136;28;20048;-74
2022/12/19 04:14:19;;;;;;;43.17;26.30;;;;;;;;;;5061859;28;20047;-74
2022/12/19 04:16:56;;;;;;;38.83;25.02;;;;;;;;;;5066823;28;20086;-73
2022/12/19 04:19:35;;;;;;;46.35;28.08;;;;;;;;;;5059387;28;20040;-74
2022/12/19 04:22:05;;;;;;;48.05;27.85;;;;;;;;;;5063569;28;20058;-74
2022/12/19 04:24:33;;;;;;;42.72;26.63;;;;;;;;;;5064034;28;20068;-74
2022/12/19 04:27:01;;;;;;;42.50;25.92;;;;;;;;;;5054109;28;20041;-74
2022/12/19 04:29:28;;;;;;;50.25;28.40;;;;;;;;;;5061104;28;20401;-74
2022/12/19 04:31:54;;;;;;;45.25;27.70;;;;;;;;;;5062314;28;20052;-74
2022/12/19 04:34:20;;;;;;;41.80;25.02;;;;;;;;;;5060337;28;20036;-73
2022/12/19 04:36:47;;;;;;;44.58;26.10;;;;;;;;;;5063664;28;20059;-74
2022/12/19 04:39:13;;;;;;;40.60;25.50;;;;;;;;;;5050864;28;20058;-74
2022/12/19 04:41:41;;;;;;;44.45;28.35;;;;;;;;;;5057220;28;20065;-74
2022/12/19 04:44:07;;;;;;;42.85;25.92;;;;;;;;;;5054469;28;20060;-74
2022/12/19 04:46:33;;;;;;;46.20;27.20;;;;;;;;;;5052785;28;20052;-74
2022/12/19 04:48:59;;;;;;;41.53;25.52;;;;;;;;;;5053702;28;20060;-74
2022/12/19 04:51:25;;;;;;;44.28;25.25;;;;;;;;;;5056267;28;21666;-74
2022/12/19 04:53:51;;;;;;;45.38;26.13;;;;;;;;;;5052128;28;20064;-74
2022/12/19 04:56:17;;;;;;;44.40;25.73;;;;;;;;;;5053432;28;20239;-73
2022/12/19 04:58:43;;;;;;;42.90;25.55;;;;;;;;;;5054376;28;20152;-73
2022/12/19 05:01:09;;;;;;;43.42;25.50;;;;;;;;;;5050656;28;20496;-74
2022/12/19 05:03:38;;;;;;;42.90;26.15;;;;;;;;;;5053751;28;20041;-74
2022/12/19 05:06:11;;;;;;;45.22;26.13;;;;;;;;;;5051641;28;20082;-74
2022/12/19 05:08:38;;;;;;;41.58;24.05;;;;;;;;;;5051924;28;20076;-74
2022/12/19 05:11:05;;;;;;;39.47;25.13;;;;;;;;;;5054992;28;20048;-74
2022/12/19 05:13:31;;;;;;;38.78;25.23;;;;;;;;;;5055878;28;20131;-74
2022/12/19 05:15:58;;;;;;;42.00;24.65;;;;;;;;;;5052111;28;20049;-73
2022/12/19 05:18:24;;;;;;;42.13;23.67;;;;;;;;;;5058100;28;20037;-74
2022/12/19 05:20:50;;;;;;;39.70;24.63;;;;;;;;;;5055548;28;20040;-73
2022/12/19 05:23:16;;;;;;;37.03;22.13;;;;;;;;;;5055941;28;20052;-74
2022/12/19 05:25:42;;;;;;;39.72;23.55;;;;;;;;;;5056206;28;20051;-74
2022/12/19 05:28:09;;;;;;;39.15;22.60;;;;;;;;;;5055977;28;20059;-74
2022/12/19 05:30:35;;;;;;;33.80;21.50;;;;;;;;;;5053327;28;20051;-74
2022/12/19 05:33:01;;;;;;;33.38;21.80;;;;;;;;;;5054756;28;20056;-74
2022/12/19 05:35:27;;;;;;;31.73;20.02;;;;;;;;;;5053534;28;20056;-74
2022/12/19 05:37:53;;;;;;;34.17;20.85;;;;;;;;;;5061688;28;20506;-74
2022/12/19 05:40:19;;;;;;;33.03;20.73;;;;;;;;;;5067281;28;20120;-74
2022/12/19 05:42:45;;;;;;;32.13;20.70;;;;;;;;;;5054478;28;20125;-74
2022/12/19 05:45:14;;;;;;;33.13;19.92;;;;;;;;;;5058156;28;20496;-74
2022/12/19 05:47:42;;;;;;;33.63;20.00;;;;;;;;;;5057219;28;20040;-74
2022/12/19 05:50:09;;;;;;;31.33;19.58;;;;;;;;;;5074925;28;20056;-74
2022/12/19 05:52:35;;;;;;;29.60;19.67;;;;;;;;;;5065401;28;20036;-74
2022/12/19 05:55:01;;;;;;;31.25;19.88;;;;;;;;;;5053248;28;20794;-74
2022/12/19 05:57:34;;;;;;;29.85;18.58;;;;;;;;;;5057098;28;20060;-74
2022/12/19 06:00:00;;;;;;;30.60;18.40;;;;;;;;;;5057482;28;20166;-74
2022/12/19 06:02:26;;;;;;;28.10;17.58;;;;;;;;;;5060414;28;20128;-74
2022/12/19 06:04:52;;;;;;;25.88;16.00;;;;;;;;;;5059941;28;20458;-73
2022/12/19 06:07:18;;;;;;;29.83;18.15;;;;;;;;;;5058320;28;20525;-73
2022/12/19 06:09:44;;;;;;;26.83;16.98;;;;;;;;;;5057459;28;20037;-74
2022/12/19 06:12:10;;;;;;;28.10;18.75;;;;;;;;;;5058835;28;20407;-74
2022/12/19 06:14:36;;;;;;;32.65;19.75;;;;;;;;;;5060576;28;20037;-74
2022/12/19 06:17:02;;;;;;;24.88;16.48;;;;;;;;;;5062511;28;20101;-74
2022/12/19 06:19:31;;;;;;;22.23;14.68;;;;;;;;;;5057954;28;20043;-74
2022/12/19 06:21:57;;;;;;;20.00;13.10;;;;;;;;;;5060862;28;20054;-74
2022/12/19 06:24:26;;;;;;;22.95;16.00;;;;;;;;;;5056494;28;20396;-74
2022/12/19 06:26:52;;;;;;;19.58;13.63;;;;;;;;;;5058433;28;20075;-74
2022/12/19 06:29:18;;;;;;;19.55;12.85;;;;;;;;;;5059064;28;20496;-73
2022/12/19 06:31:44;;;;;;;19.15;13.07;;;;;;;;;;5058129;28;20427;-73
2022/12/19 06:34:10;;;;;;;18.55;12.63;;;;;;;;;;5058145;28;20542;-73
2022/12/19 06:36:40;;;;;;;20.85;13.70;;;;;;;;;;5058270;28;20571;-74
2022/12/19 06:39:06;;;;;;;21.40;13.77;;;;;;;;;;5054169;28;20094;-72
2022/12/19 06:44:17;;;;;;;18.23;11.43;;;;;;;;;;5054886;28;20041;-74
2022/12/19 06:46:43;;;;;;;18.50;12.70;;;;;;;;;;5058818;28;20135;-74
2022/12/19 06:49:10;;;;;;;16.67;12.02;;;;;;;;;;5058503;28;20040;-74
2022/12/19 06:51:36;;;;;;;17.48;12.55;;;;;;;;;;5055378;28;20048;-75
2022/12/19 06:54:02;;;;;;;18.17;12.10;;;;;;;;;;5053139;28;20397;-75
2022/12/19 06:56:33;;;;;;;21.10;14.45;;;;;;;;;;5055825;28;20056;-75
2022/12/19 06:58:59;;;;;;;19.48;12.57;;;;;;;;;;5059271;28;20549;-75
2022/12/19 07:01:25;;;;;;;18.20;11.70;;;;;;;;;;5056355;28;20169;-75
2022/12/19 07:03:51;;;;;;;15.02;10.95;;;;;;;;;;5066599;28;20115;-75
2022/12/19 07:06:17;;;;;;;19.40;13.18;;;;;;;;;;5061176;28;20040;-75
2022/12/19 07:08:43;;;;;;;18.25;13.13;;;;;;;;;;5061751;28;20047;-75
2022/12/19 07:11:09;;;;;;;18.40;12.70;;;;;;;;;;5052032;28;20041;-75
2022/12/19 07:13:38;;;;;;;20.00;13.07;;;;;;;;;;5055721;28;20098;-75
2022/12/19 07:16:04;;;;;;;20.25;13.93;;;;;;;;;;5056401;28;20047;-75
2022/12/19 07:18:33;;;;;;;20.95;14.48;;;;;;;;;;5063531;28;20069;-75
2022/12/19 07:20:59;;;;;;;19.90;13.43;;;;;;;;;;5058555;28;20048;-75
2022/12/19 07:23:25;;;;;;;19.70;13.02;;;;;;;;;;5060016;28;20052;-75
2022/12/19 07:25:51;;;;;;;21.33;14.18;;;;;;;;;;5059026;28;20053;-75
2022/12/19 07:28:17;;;;;;;19.95;13.50;;;;;;;;;;5056835;28;20059;-75
2022/12/19 07:30:43;;;;;;;22.95;15.15;;;;;;;;;;5060212;28;20037;-75
2022/12/19 07:33:09;;;;;;;21.15;14.82;;;;;;;;;;5056337;28;20056;-75
2022/12/19 07:35:35;;;;;;;22.08;13.75;;;;;;;;;;5058248;28;20049;-75
2022/12/19 07:38:02;;;;;;;16.25;11.50;;;;;;;;;;5062965;28;20052;-79
2022/12/19 07:40:31;;;;;;;22.10;15.15;;;;;;;;;;5057512;28;20073;-75
2022/12/19 07:43:04;;;;;;;20.20;14.02;;;;;;;;;;5063182;28;20409;-75
2022/12/19 07:45:31;;;;;;;23.10;14.98;;;;;;;;;;5056181;28;20048;-75
2022/12/19 07:48:00;;;;;;;19.80;13.40;;;;;;;;;;5063598;28;20189;-75
2022/12/19 07:50:27;;;;;;;18.00;12.15;;;;;;;;;;5062228;28;20044;-74
2022/12/19 07:52:53;;;;;;;21.55;13.32;;;;;;;;;;5066032;28;20056;-75
2022/12/19 07:55:19;;;;;;;21.40;14.77;;;;;;;;;;5069974;28;20036;-75
2022/12/19 07:57:45;;;;;;;19.17;13.35;;;;;;;;;;5065053;28;20045;-75
2022/12/19 08:00:11;;;;;;;16.92;12.55;;;;;;;;;;5063204;28;20048;-75
2022/12/19 08:02:37;;;;;;;23.05;16.52;;;;;;;;;;5061477;28;20044;-75
2022/12/19 08:05:04;;;;;;;20.95;14.00;;;;;;;;;;5070361;28;20092;-75
2022/12/19 08:07:30;;;;;;;26.88;17.50;;;;;;;;;;5068440;28;20048;-75
2022/12/19 08:09:56;;;;;;;20.00;13.50;;;;;;;;;;5062463;28;20499;-75
2022/12/19 08:12:22;;;;;;;26.13;16.98;;;;;;;;;;5061722;28;20045;-75
2022/12/19 08:14:48;;;;;;;21.65;15.13;;;;;;;;;;5066840;28;20077;-75
2022/12/19 08:17:15;;;;;;;24.45;16.88;;;;;;;;;;5059018;28;20045;-75
2022/12/19 08:19:41;;;;;;;24.02;17.42;;;;;;;;;;5061775;28;20415;-75
2022/12/19 08:22:07;;;;;;;26.13;18.55;;;;;;;;;;5064134;28;20048;-75
2022/12/19 08:24:33;;;;;;;22.23;15.98;;;;;;;;;;5062420;28;20056;-75
2022/12/19 08:26:59;;;;;;;24.30;17.35;;;;;;;;;;5066857;28;20119;-74
2022/12/19 08:29:25;;;;;;;26.17;17.48;;;;;;;;;;5062315;28;20125;-75
2022/12/19 08:31:51;;;;;;;24.88;17.65;;;;;;;;;;5063657;28;20499;-75
2022/12/19 08:34:17;;;;;;;27.70;18.17;;;;;;;;;;5062394;28;20143;-75
2022/12/19 08:36:43;;;;;;;27.60;19.10;;;;;;;;;;5061132;28;20488;-74
2022/12/19 08:39:10;;;;;;;27.30;18.77;;;;;;;;;;5067915;28;20047;-75
2022/12/19 08:41:36;;;;;;;26.50;19.55;;;;;;;;;;5065319;28;20170;-78
2022/12/19 08:44:02;;;;;;;22.35;15.70;;;;;;;;;;5063121;28;20488;-76
2022/12/19 08:46:28;;;;;;;27.13;19.92;;;;;;;;;;5062818;28;20125;-78
2022/12/19 08:48:54;;;;;;;27.08;19.50;;;;;;;;;;5059381;28;20072;-77
2022/12/19 08:51:20;;;;;;;28.67;19.92;;;;;;;;;;5060065;28;20037;-75
2022/12/19 08:53:47;;;;;;;24.13;16.70;;;;;;;;;;5058585;28;20045;-73
2022/12/19 08:56:17;;;;;;;25.65;19.75;;;;;;;;;;5058418;28;20136;-75
2022/12/19 08:58:43;;;;;;;24.33;19.45;;;;;;;;;;5056060;28;20033;-74
2022/12/19 09:01:15;;;;;;;29.52;19.58;;;;;;;;;;5056390;28;20173;-76
2022/12/19 09:03:41;;;;;;;25.60;18.88;;;;;;;;;;5061451;28;20048;-75
2022/12/19 09:06:09;;;;;;;26.35;18.83;;;;;;;;;;5062640;28;20048;-75
2022/12/19 09:08:35;;;;;;;26.88;19.33;;;;;;;;;;5064292;28;20041;-75
2022/12/19 09:11:12;;;;;;;22.85;17.17;;;;;;;;;;5064321;28;20060;-75
2022/12/19 09:13:38;;;;;;;28.77;20.45;;;;;;;;;;5059382;28;20523;-75
2022/12/19 09:16:06;;;;;;;26.08;19.35;;;;;;;;;;5063559;28;20119;-75
2022/12/19 09:18:32;;;;;;;28.05;19.90;;;;;;;;;;5057772;28;20083;-76
2022/12/19 09:20:59;;;;;;;24.85;17.67;;;;;;;;;;5055896;28;20408;-73
2022/12/19 09:23:28;;;;;;;25.70;19.05;;;;;;;;;;5060198;28;20466;-76
2022/12/19 09:25:55;;;;;;;24.50;18.45;;;;;;;;;;5060628;28;20423;-75
2022/12/19 09:28:21;;;;;;;25.35;19.05;;;;;;;;;;5062878;28;20083;-75
2022/12/19 09:30:54;;;;;;;26.65;20.45;;;;;;;;;;5065285;28;20044;-74
2022/12/19 09:33:20;;;;;;;27.42;20.10;;;;;;;;;;5062336;28;20123;-77
2022/12/19 09:35:53;;;;;;;27.90;20.60;;;;;;;;;;5061988;28;20080;-74
2022/12/19 09:38:20;;;;;;;24.65;17.40;;;;;;;;;;5059558;28;20048;-75
2022/12/19 09:41:06;;;;;;;31.20;19.90;;;;;;;;;;5060981;28;20044;-75
2022/12/19 09:43:50;;;;;;;23.58;17.67;;;;;;;;;;5065434;28;20051;-75
2022/12/19 09:46:16;;;;;;;22.10;16.77;;;;;;;;;;5062753;28;20044;-75
2022/12/19 09:48:43;;;;;;;27.75;19.85;;;;;;;;;;5065985;28;21365;-75
2022/12/19 09:51:16;;;;;;;29.73;20.13;;;;;;;;;;5064218;28;20040;-75
2022/12/19 09:53:47;;;;;;;27.50;18.98;;;;;;;;;;5065862;28;21404;-75
2022/12/19 09:56:14;;;;;;;22.48;16.25;;;;;;;;;;5064023;28;20044;-75
2022/12/19 09:58:43;;;;;;;22.58;16.50;;;;;;;;;;5065648;28;20074;-75
2022/12/19 10:01:21;;;;;;;23.10;17.08;;;;;;;;;;5064060;28;20479;-75
2022/12/19 10:03:54;;;;;;;20.73;16.17;;;;;;;;;;5057827;28;20049;-75
2022/12/19 10:06:21;;;;;;;26.83;18.23;;;;;;;;;;5067209;28;20053;-75
2022/12/19 10:08:48;;;;;;;24.23;16.58;;;;;;;;;;5060260;28;20347;-75
2022/12/19 10:11:14;;;;;;;21.55;15.35;;;;;;;;;;5065664;28;20471;-75
2022/12/19 10:13:46;;;;;;;22.48;15.38;;;;;;;;;;5068318;28;20139;-75
2022/12/19 10:16:16;;;;;;;22.98;14.15;;;;;;;;;;5064195;28;20914;-75
2022/12/19 10:18:47;;;;;;;19.33;13.75;;;;;;;;;;5067556;28;20052;-75
2022/12/19 10:21:16;;;;;;;25.67;16.88;;;;;;;;;;5066321;28;20408;-75
2022/12/19 10:23:43;;;;;;;19.25;14.90;;;;;;;;;;5068304;28;20127;-75
2022/12/19 10:26:21;;;;;;;21.75;14.90;;;;;;;;;;5068403;28;20485;-75
2022/12/19 10:28:47;;;;;;;22.23;15.13;;;;;;;;;;5062116;28;20048;-75
2022/12/19 10:31:35;;;;;;;22.13;15.60;;;;;;;;;;5064990;28;20037;-75
2022/12/19 10:34:18;;;;;;;21.45;14.70;;;;;;;;;;5064632;28;20045;-75
2022/12/19 10:36:46;;;;;;;20.30;14.63;;;;;;;;;;5069708;28;20053;-75
2022/12/19 10:39:17;;;;;;;21.92;15.40;;;;;;;;;;5063918;28;20053;-75
2022/12/19 10:41:44;;;;;;;19.77;14.60;;;;;;;;;;5067665;28;20553;-75
2022/12/19 10:44:10;;;;;;;21.45;13.32;;;;;;;;;;5064066;28;20102;-75
2022/12/19 10:46:49;;;;;;;19.95;14.90;;;;;;;;;;5064855;28;20102;-75
2022/12/19 10:49:17;;;;;;;17.27;12.80;;;;;;;;;;5064347;28;20573;-75
2022/12/19 10:51:55;;;;;;;20.15;15.10;;;;;;;;;;5064765;28;20133;-75
2022/12/19 10:54:36;;;;;;;18.90;14.20;;;;;;;;;;5066704;28;20048;-75
2022/12/19 10:57:14;;;;;;;18.90;14.43;;;;;;;;;;5063806;28;20411;-75
2022/12/19 10:59:53;;;;;;;17.77;11.82;;;;;;;;;;5065042;28;20044;-75
2022/12/19 11:02:28;;;;;;;17.55;14.13;;;;;;;;;;5062094;28;20048;-75
2022/12/19 11:04:54;;;;;;;19.17;13.70;;;;;;;;;;5066875;28;20044;-75
2022/12/19 11:07:21;;;;;;;18.90;14.65;;;;;;;;;;5065052;28;20055;-75
2022/12/19 11:09:47;;;;;;;18.83;11.95;;;;;;;;;;5065526;28;20507;-75
2022/12/19 11:12:15;;;;;;;17.45;11.75;;;;;;;;;;5061385;28;20045;-75
2022/12/19 11:15:01;;;;;;;19.83;14.07;;;;;;;;;;5065088;28;20063;-75
2022/12/19 11:17:33;;;;;;;17.92;13.93;;;;;;;;;;5053771;28;20475;-75
2022/12/19 11:20:09;;;;;;;15.32;12.40;;;;;;;;;;5062401;28;20043;-75
2022/12/19 11:22:36;;;;;;;17.67;13.10;;;;;;;;;;5065910;28;20033;-75
2022/12/19 11:25:03;;;;;;;17.00;13.07;;;;;;;;;;5064801;28;20072;-75
2022/12/19 11:27:49;;;;;;;21.25;14.25;;;;;;;;;;5060646;28;20400;-75
2022/12/19 11:30:15;;;;;;;16.50;13.35;;;;;;;;;;5065475;28;20123;-75
2022/12/19 11:32:43;;;;;;;15.13;11.85;;;;;;;;;;5063988;28;20123;-75
2022/12/19 11:35:20;;;;;;;16.23;13.98;;;;;;;;;;5064313;28;20063;-75
2022/12/19 11:37:46;;;;;;;18.50;14.60;;;;;;;;;;5061387;28;20044;-76
2022/12/19 11:40:20;;;;;;;19.20;15.30;;;;;;;;;;5061030;28;20487;-76
2022/12/19 11:43:18;;;;;;;14.15;11.95;;;;;;;;;;5065308;28;20118;-76
2022/12/19 11:46:03;;;;;;;16.65;13.52;;;;;;;;;;5012750;28;20082;-75
2022/12/19 11:48:38;;;;;;;18.55;14.07;;;;;;;;;;5068157;28;20059;-75
2022/12/19 11:51:13;;;;;;;16.17;14.10;;;;;;;;;;5069364;28;20095;-75
2022/12/19 11:53:46;;;;;;;16.20;13.25;;;;;;;;;;5066956;28;20060;-76
2022/12/19 11:56:14;;;;;;;22.60;14.75;;;;;;;;;;5067567;28;20048;-75
2022/12/19 11:58:40;;;;;;;19.00;13.63;;;;;;;;;;5073101;28;20045;-75
2022/12/19 12:01:16;;;;;;;16.90;11.90;;;;;;;;;;5068702;28;20148;-76
2022/12/19 12:03:57;;;;;;;15.82;12.90;;;;;;;;;;5068823;28;20036;-75
2022/12/19 12:06:24;;;;;;;15.15;12.48;;;;;;;;;;5069566;28;20048;-75
2022/12/19 12:08:55;;;;;;;17.52;13.10;;;;;;;;;;5068849;28;20059;-76
2022/12/19 12:11:47;;;;;;;16.08;13.20;;;;;;;;;;5074033;28;20040;-75
2022/12/19 12:14:21;;;;;;;17.52;14.07;;;;;;;;;;5062436;28;20057;-75
2022/12/19 12:16:55;;;;;;;12.98;11.13;;;;;;;;;;5062948;28;20055;-75
2022/12/19 12:19:29;;;;;;;17.75;13.98;;;;;;;;;;5068030;28;20482;-78
2022/12/19 12:22:02;;;;;;;17.77;13.48;;;;;;;;;;5067811;28;20048;-75
2022/12/19 12:25:01;;;;;;;15.10;11.68;;;;;;;;;;5067215;28;20053;-78
2022/12/19 12:27:36;;;;;;;15.20;11.75;;;;;;;;;;5027904;28;20053;-75
2022/12/19 12:30:11;;;;;;;15.25;12.23;;;;;;;;;;5072216;28;20063;-75
2022/12/19 12:32:46;;;;;;;16.15;12.95;;;;;;;;;;5068216;28;20531;-76
2022/12/19 12:35:18;;;;;;;14.98;12.38;;;;;;;;;;5067237;28;20084;-76
2022/12/19 12:37:47;;;;;;;15.00;11.93;;;;;;;;;;5068907;28;20477;-76
2022/12/19 12:40:32;;;;;;;16.52;10.25;;;;;;;;;;5062898;28;20481;-76
2022/12/19 12:43:14;;;;;;;17.65;12.40;;;;;;;;;;5068375;28;20044;-76
2022/12/19 12:45:41;;;;;;;16.52;11.93;;;;;;;;;;5066663;28;20399;-75
2022/12/19 12:48:17;;;;;;;17.38;12.77;;;;;;;;;;5068954;28;20077;-76
2022/12/19 12:50:44;;;;;;;13.23;10.82;;;;;;;;;;5068097;28;20044;-75
2022/12/19 12:53:12;;;;;;;13.77;10.57;;;;;;;;;;5067394;28;20028;-75
2022/12/19 12:55:41;;;;;;;14.85;10.07;;;;;;;;;;5071085;28;20041;-75
2022/12/19 12:58:26;;;;;;;15.48;11.30;;;;;;;;;;5064394;28;20043;-75
2022/12/19 13:01:27;;;;;;;14.48;10.68;;;;;;;;;;5061748;28;20067;-75
2022/12/19 13:03:57;;;;;;;15.10;10.68;;;;;;;;;;5006068;28;20587;-76
2022/12/19 13:06:42;;;;;;;13.88;11.20;;;;;;;;;;5050331;28;20131;-75
2022/12/19 13:09:08;;;;;;;14.35;10.15;;;;;;;;;;5066687;28;20052;-75
2022/12/19 13:14:34;;;;;;;13.65;10.57;;;;;;;;;;5067903;28;20120;-75
2022/12/19 13:17:01;;;;;;;14.70;10.98;;;;;;;;;;5064039;28;20101;-75
2022/12/19 13:19:31;;;;;;;15.02;11.40;;;;;;;;;;5065487;28;20056;-75
2022/12/19 13:22:03;;;;;;;14.20;11.13;;;;;;;;;;5063234;28;20503;-75
2022/12/19 13:24:40;;;;;;;14.25;12.15;;;;;;;;;;5084481;28;20094;-76
2022/12/19 13:27:18;;;;;;;15.20;11.95;;;;;;;;;;5067965;28;20049;-75
2022/12/19 13:29:59;;;;;;;16.08;12.38;;;;;;;;;;5064568;28;20055;-75
2022/12/19 13:32:26;;;;;;;16.52;12.23;;;;;;;;;;5067734;28;20048;-75
2022/12/19 13:35:03;;;;;;;18.10;13.50;;;;;;;;;;5065825;28;20056;-75
2022/12/19 13:37:42;;;;;;;16.00;12.50;;;;;;;;;;5068040;28;20373;-75
2022/12/19 13:40:25;;;;;;;14.77;12.45;;;;;;;;;;5062500;28;20083;-75
2022/12/19 13:46:04;;;;;;;13.68;10.52;;;;;;;;;;5062068;28;20714;-75
2022/12/19 13:48:35;;;;;;;16.75;13.30;;;;;;;;;;5065428;28;20539;-75
2022/12/19 13:51:06;;;;;;;17.55;13.50;;;;;;;;;;5067872;28;20123;-75
2022/12/19 13:53:32;;;;;;;15.25;12.55;;;;;;;;;;5068312;28;20131;-75
2022/12/19 13:56:06;;;;;;;14.32;12.73;;;;;;;;;;5064062;28;20041;-75
2022/12/19 13:58:52;;;;;;;14.75;12.48;;;;;;;;;;5066434;28;20041;-75
2022/12/19 14:01:18;;;;;;;14.57;12.30;;;;;;;;;;5060648;28;20045;-75
2022/12/19 14:03:46;;;;;;;16.33;13.15;;;;;;;;;;5060871;28;20089;-75
2022/12/19 14:06:18;;;;;;;15.52;12.77;;;;;;;;;;5064335;28;20676;-75
2022/12/19 14:08:45;;;;;;;17.88;14.18;;;;;;;;;;5067191;28;20055;-75
2022/12/19 14:11:14;;;;;;;14.98;13.00;;;;;;;;;;5070311;28;20132;-75
2022/12/19 14:16:32;;;;;;;18.45;14.30;;;;;;;;;;5056356;28;20049;-74
2022/12/19 14:18:59;;;;;;;18.23;14.77;;;;;;;;;;5068038;28;20049;-73
2022/12/19 14:21:26;;;;;;;18.30;14.95;;;;;;;;;;5068987;28;20056;-74
2022/12/19 14:24:12;;;;;;;16.60;13.70;;;;;;;;;;5058466;28;20417;-73
2022/12/19 14:26:39;;;;;;;17.42;13.93;;;;;;;;;;5062520;28;20057;-73
2022/12/19 14:29:07;;;;;;;15.70;12.73;;;;;;;;;;5068388;28;20086;-73
2022/12/19 14:31:35;;;;;;;18.23;14.20;;;;;;;;;;5066687;28;20129;-73
2022/12/19 14:34:01;;;;;;;18.52;14.35;;;;;;;;;;5059119;28;20051;-74
2022/12/19 14:36:29;;;;;;;17.33;13.98;;;;;;;;;;5069800;28;20508;-75
2022/12/19 14:38:55;;;;;;;16.90;12.23;;;;;;;;;;5065730;28;20045;-75
2022/12/19 14:44:13;;;;;;;16.95;11.25;;;;;;;;;;5067744;28;20082;-73
2022/12/19 14:46:39;;;;;;;17.80;13.27;;;;;;;;;;5067880;28;20072;-73
2022/12/19 14:49:24;;;;;;;13.98;11.45;;;;;;;;;;5068919;28;20477;-73
2022/12/19 14:51:50;;;;;;;16.55;11.98;;;;;;;;;;5065857;28;20036;-74